sensor_id;sensor_type;location;lat;lon;timestamp;P1;durP1;ratioP1;P2;durP2;ratioP2
43986;SDS011;29650;47.378;8.300;2024-01-25T00:01:18;0.85;;;0.30;;
43986;SDS011;29650;47.378;8.300;2024-01-25T00:03:45;0.50;;;0.35;;
43986;SDS011;29650;47.378;8.300;2024-01-25T00:06:13;2.05;;;0.20;;
43986;SDS011;29650;47.378;8.300;2024-01-25T00:08:41;0.70;;;0.28;;
43986;SDS011;29650;47.378;8.300;2024-01-25T00:11:08;1.80;;;0.88;;
43986;SDS011;29650;47.378;8.300;2024-01-25T00:13:35;0.90;;;0.22;;
43986;SDS011;29650;47.378;8.300;2024-01-25T00:16:03;1.23;;;0.28;;
43986;SDS011;29650;47.378;8.300;2024-01-25T00:18:31;2.20;;;0.40;;
43986;SDS011;29650;47.378;8.300;2024-01-25T00:20:57;1.38;;;0.20;;
43986;SDS011;29650;47.378;8.300;2024-01-25T00:23:24;1.45;;;0.30;;
43986;SDS011;29650;47.378;8.300;2024-01-25T00:25:54;0.80;;;0.10;;
43986;SDS011;29650;47.378;8.300;2024-01-25T00:28:23;4.10;;;0.38;;
43986;SDS011;29650;47.378;8.300;2024-01-25T00:30:50;1.67;;;0.30;;
43986;SDS011;29650;47.378;8.300;2024-01-25T00:33:17;0.88;;;0.28;;
43986;SDS011;29650;47.378;8.300;2024-01-25T00:35:44;0.60;;;0.17;;
43986;SDS011;29650;47.378;8.300;2024-01-25T00:38:12;1.65;;;0.50;;
43986;SDS011;29650;47.378;8.300;2024-01-25T00:40:39;1.17;;;0.22;;
43986;SDS011;29650;47.378;8.300;2024-01-25T00:43:08;1.00;;;0.10;;
43986;SDS011;29650;47.378;8.300;2024-01-25T00:48:03;3.40;;;0.82;;
43986;SDS011;29650;47.378;8.300;2024-01-25T00:50:31;0.30;;;0.20;;
43986;SDS011;29650;47.378;8.300;2024-01-25T00:52:58;0.20;;;0.20;;
43986;SDS011;29650;47.378;8.300;2024-01-25T00:55:25;3.30;;;0.50;;
43986;SDS011;29650;47.378;8.300;2024-01-25T00:57:53;2.17;;;0.25;;
43986;SDS011;29650;47.378;8.300;2024-01-25T01:00:22;1.08;;;0.20;;
43986;SDS011;29650;47.378;8.300;2024-01-25T01:02:50;0.63;;;0.20;;
43986;SDS011;29650;47.378;8.300;2024-01-25T01:05:19;0.17;;;0.10;;
43986;SDS011;29650;47.378;8.300;2024-01-25T01:07:47;0.45;;;0.20;;
43986;SDS011;29650;47.378;8.300;2024-01-25T01:10:14;0.17;;;0.17;;
43986;SDS011;29650;47.378;8.300;2024-01-25T01:12:41;0.17;;;0.17;;
43986;SDS011;29650;47.378;8.300;2024-01-25T01:15:08;0.10;;;0.10;;
43986;SDS011;29650;47.378;8.300;2024-01-25T01:17:36;0.28;;;0.20;;
43986;SDS011;29650;47.378;8.300;2024-01-25T01:20:04;0.25;;;0.10;;
43986;SDS011;29650;47.378;8.300;2024-01-25T01:22:31;0.55;;;0.17;;
43986;SDS011;29650;47.378;8.300;2024-01-25T01:24:58;2.17;;;0.22;;
43986;SDS011;29650;47.378;8.300;2024-01-25T01:27:25;0.30;;;0.30;;
43986;SDS011;29650;47.378;8.300;2024-01-25T01:29:52;0.75;;;0.30;;
43986;SDS011;29650;47.378;8.300;2024-01-25T01:32:19;0.30;;;0.15;;
43986;SDS011;29650;47.378;8.300;2024-01-25T01:34:48;0.95;;;0.28;;
43986;SDS011;29650;47.378;8.300;2024-01-25T01:37:14;1.75;;;0.22;;
43986;SDS011;29650;47.378;8.300;2024-01-25T01:39:41;0.25;;;0.10;;
43986;SDS011;29650;47.378;8.300;2024-01-25T01:42:08;0.40;;;0.40;;
43986;SDS011;29650;47.378;8.300;2024-01-25T01:44:35;0.77;;;0.30;;
43986;SDS011;29650;47.378;8.300;2024-01-25T01:47:02;0.47;;;0.22;;
43986;SDS011;29650;47.378;8.300;2024-01-25T01:49:29;0.98;;;0.40;;
43986;SDS011;29650;47.378;8.300;2024-01-25T01:51:58;2.10;;;0.35;;
43986;SDS011;29650;47.378;8.300;2024-01-25T01:54:25;1.08;;;0.70;;
43986;SDS011;29650;47.378;8.300;2024-01-25T01:56:52;1.10;;;1.00;;
43986;SDS011;29650;47.378;8.300;2024-01-25T01:59:19;2.30;;;0.80;;
43986;SDS011;29650;47.378;8.300;2024-01-25T02:01:46;0.50;;;0.47;;
43986;SDS011;29650;47.378;8.300;2024-01-25T02:04:12;0.73;;;0.40;;
43986;SDS011;29650;47.378;8.300;2024-01-25T02:06:40;1.58;;;0.70;;
43986;SDS011;29650;47.378;8.300;2024-01-25T02:09:10;1.42;;;0.55;;
43986;SDS011;29650;47.378;8.300;2024-01-25T02:11:37;1.70;;;1.07;;
43986;SDS011;29650;47.378;8.300;2024-01-25T02:14:04;0.70;;;0.70;;
43986;SDS011;29650;47.378;8.300;2024-01-25T02:16:35;1.20;;;0.88;;
43986;SDS011;29650;47.378;8.300;2024-01-25T02:19:02;1.65;;;0.50;;
43986;SDS011;29650;47.378;8.300;2024-01-25T02:21:29;0.52;;;0.40;;
43986;SDS011;29650;47.378;8.300;2024-01-25T02:23:57;1.00;;;0.32;;
43986;SDS011;29650;47.378;8.300;2024-01-25T02:26:24;0.20;;;0.20;;
43986;SDS011;29650;47.378;8.300;2024-01-25T02:28:51;0.22;;;0.20;;
43986;SDS011;29650;47.378;8.300;2024-01-25T02:31:18;0.60;;;0.10;;
43986;SDS011;29650;47.378;8.300;2024-01-25T02:33:45;0.05;;;0.00;;
43986;SDS011;29650;47.378;8.300;2024-01-25T02:36:12;1.15;;;0.15;;
43986;SDS011;29650;47.378;8.300;2024-01-25T02:38:39;0.30;;;0.30;;
43986;SDS011;29650;47.378;8.300;2024-01-25T02:41:07;0.38;;;0.10;;
43986;SDS011;29650;47.378;8.300;2024-01-25T02:43:34;0.10;;;0.10;;
43986;SDS011;29650;47.378;8.300;2024-01-25T02:46:01;0.08;;;0.08;;
43986;SDS011;29650;47.378;8.300;2024-01-25T02:48:27;0.22;;;0.10;;
43986;SDS011;29650;47.378;8.300;2024-01-25T02:50:54;0.80;;;0.20;;
43986;SDS011;29650;47.378;8.300;2024-01-25T02:53:20;0.10;;;0.10;;
43986;SDS011;29650;47.378;8.300;2024-01-25T02:55:47;0.10;;;0.10;;
43986;SDS011;29650;47.378;8.300;2024-01-25T02:58:16;0.40;;;0.30;;
43986;SDS011;29650;47.378;8.300;2024-01-25T03:00:43;0.13;;;0.10;;
43986;SDS011;29650;47.378;8.300;2024-01-25T03:03:10;0.10;;;0.10;;
43986;SDS011;29650;47.378;8.300;2024-01-25T03:05:37;0.65;;;0.20;;
43986;SDS011;29650;47.378;8.300;2024-01-25T03:08:04;0.10;;;0.10;;
43986;SDS011;29650;47.378;8.300;2024-01-25T03:10:31;0.10;;;0.10;;
43986;SDS011;29650;47.378;8.300;2024-01-25T03:12:58;0.10;;;0.10;;
43986;SDS011;29650;47.378;8.300;2024-01-25T03:15:26;0.20;;;0.20;;
43986;SDS011;29650;47.378;8.300;2024-01-25T03:17:53;0.32;;;0.20;;
43986;SDS011;29650;47.378;8.300;2024-01-25T03:20:20;1.20;;;0.45;;
43986;SDS011;29650;47.378;8.300;2024-01-25T03:22:47;0.38;;;0.17;;
43986;SDS011;29650;47.378;8.300;2024-01-25T03:25:14;0.52;;;0.20;;
43986;SDS011;29650;47.378;8.300;2024-01-25T03:27:41;0.25;;;0.15;;
43986;SDS011;29650;47.378;8.300;2024-01-25T03:30:08;0.22;;;0.20;;
43986;SDS011;29650;47.378;8.300;2024-01-25T03:32:37;0.32;;;0.20;;
43986;SDS011;29650;47.378;8.300;2024-01-25T03:35:05;1.40;;;0.10;;
43986;SDS011;29650;47.378;8.300;2024-01-25T03:37:32;3.97;;;0.40;;
43986;SDS011;29650;47.378;8.300;2024-01-25T03:39:59;0.28;;;0.28;;
43986;SDS011;29650;47.378;8.300;2024-01-25T03:42:26;0.63;;;0.30;;
43986;SDS011;29650;47.378;8.300;2024-01-25T03:44:53;0.30;;;0.25;;
43986;SDS011;29650;47.378;8.300;2024-01-25T03:47:20;0.10;;;0.10;;
43986;SDS011;29650;47.378;8.300;2024-01-25T03:49:48;0.60;;;0.38;;
43986;SDS011;29650;47.378;8.300;2024-01-25T03:52:15;0.22;;;0.20;;
43986;SDS011;29650;47.378;8.300;2024-01-25T03:54:42;0.95;;;0.38;;
43986;SDS011;29650;47.378;8.300;2024-01-25T03:57:09;0.30;;;0.20;;
43986;SDS011;29650;47.378;8.300;2024-01-25T03:59:35;0.20;;;0.20;;
43986;SDS011;29650;47.378;8.300;2024-01-25T04:02:03;0.13;;;0.13;;
43986;SDS011;29650;47.378;8.300;2024-01-25T04:04:30;0.20;;;0.20;;
43986;SDS011;29650;47.378;8.300;2024-01-25T04:06:58;0.77;;;0.50;;
43986;SDS011;29650;47.378;8.300;2024-01-25T04:09:25;0.47;;;0.45;;
43986;SDS011;29650;47.378;8.300;2024-01-25T04:11:52;1.75;;;0.52;;
43986;SDS011;29650;47.378;8.300;2024-01-25T04:14:19;1.13;;;0.50;;
43986;SDS011;29650;47.378;8.300;2024-01-25T04:16:46;1.35;;;0.60;;
43986;SDS011;29650;47.378;8.300;2024-01-25T04:19:13;0.93;;;0.60;;
43986;SDS011;29650;47.378;8.300;2024-01-25T04:21:40;0.60;;;0.60;;
43986;SDS011;29650;47.378;8.300;2024-01-25T04:24:08;0.47;;;0.47;;
43986;SDS011;29650;47.378;8.300;2024-01-25T04:26:35;2.15;;;0.80;;
43986;SDS011;29650;47.378;8.300;2024-01-25T04:29:02;2.05;;;0.68;;
43986;SDS011;29650;47.378;8.300;2024-01-25T04:31:29;0.60;;;0.60;;
43986;SDS011;29650;47.378;8.300;2024-01-25T04:33:56;1.08;;;0.70;;
43986;SDS011;29650;47.378;8.300;2024-01-25T04:36:23;0.68;;;0.60;;
43986;SDS011;29650;47.378;8.300;2024-01-25T04:38:50;0.80;;;0.50;;
43986;SDS011;29650;47.378;8.300;2024-01-25T04:41:18;1.90;;;0.50;;
43986;SDS011;29650;47.378;8.300;2024-01-25T04:43:45;0.60;;;0.60;;
43986;SDS011;29650;47.378;8.300;2024-01-25T04:46:12;1.48;;;0.70;;
43986;SDS011;29650;47.378;8.300;2024-01-25T04:48:39;1.05;;;0.35;;
43986;SDS011;29650;47.378;8.300;2024-01-25T04:51:06;0.60;;;0.38;;
43986;SDS011;29650;47.378;8.300;2024-01-25T04:53:33;0.50;;;0.40;;
43986;SDS011;29650;47.378;8.300;2024-01-25T04:56:00;0.70;;;0.20;;
43986;SDS011;29650;47.378;8.300;2024-01-25T04:58:28;0.77;;;0.40;;
43986;SDS011;29650;47.378;8.300;2024-01-25T05:00:55;0.45;;;0.40;;
43986;SDS011;29650;47.378;8.300;2024-01-25T05:03:22;1.65;;;0.50;;
43986;SDS011;29650;47.378;8.300;2024-01-25T05:05:49;1.10;;;0.35;;
43986;SDS011;29650;47.378;8.300;2024-01-25T05:08:16;0.80;;;0.20;;
43986;SDS011;29650;47.378;8.300;2024-01-25T05:10:43;1.10;;;0.30;;
43986;SDS011;29650;47.378;8.300;2024-01-25T05:13:10;1.13;;;0.40;;
43986;SDS011;29650;47.378;8.300;2024-01-25T05:15:39;1.73;;;0.80;;
43986;SDS011;29650;47.378;8.300;2024-01-25T05:18:06;1.45;;;0.70;;
43986;SDS011;29650;47.378;8.300;2024-01-25T05:20:33;1.23;;;0.60;;
43986;SDS011;29650;47.378;8.300;2024-01-25T05:23:02;1.85;;;0.73;;
43986;SDS011;29650;47.378;8.300;2024-01-25T05:25:30;0.55;;;0.38;;
43986;SDS011;29650;47.378;8.300;2024-01-25T05:27:57;2.90;;;0.77;;
43986;SDS011;29650;47.378;8.300;2024-01-25T05:30:24;0.43;;;0.40;;
43986;SDS011;29650;47.378;8.300;2024-01-25T05:32:53;0.70;;;0.57;;
43986;SDS011;29650;47.378;8.300;2024-01-25T05:35:20;1.33;;;0.60;;
43986;SDS011;29650;47.378;8.300;2024-01-25T05:37:46;1.08;;;0.40;;
43986;SDS011;29650;47.378;8.300;2024-01-25T05:40:13;2.22;;;0.70;;
43986;SDS011;29650;47.378;8.300;2024-01-25T05:42:41;0.52;;;0.52;;
43986;SDS011;29650;47.378;8.300;2024-01-25T05:45:08;1.30;;;0.75;;
43986;SDS011;29650;47.378;8.300;2024-01-25T05:47:35;2.00;;;0.88;;
43986;SDS011;29650;47.378;8.300;2024-01-25T05:50:04;2.95;;;1.00;;
43986;SDS011;29650;47.378;8.300;2024-01-25T05:55:01;1.10;;;0.85;;
43986;SDS011;29650;47.378;8.300;2024-01-25T05:57:28;1.48;;;0.93;;
43986;SDS011;29650;47.378;8.300;2024-01-25T05:59:56;2.55;;;1.30;;
43986;SDS011;29650;47.378;8.300;2024-01-25T06:02:22;3.08;;;1.70;;
43986;SDS011;29650;47.378;8.300;2024-01-25T06:04:49;3.10;;;1.30;;
43986;SDS011;29650;47.378;8.300;2024-01-25T06:07:18;5.00;;;1.42;;
43986;SDS011;29650;47.378;8.300;2024-01-25T06:09:45;2.65;;;1.48;;
43986;SDS011;29650;47.378;8.300;2024-01-25T06:12:12;4.60;;;1.80;;
43986;SDS011;29650;47.378;8.300;2024-01-25T06:14:39;3.25;;;1.55;;
43986;SDS011;29650;47.378;8.300;2024-01-25T06:17:06;3.28;;;1.67;;
43986;SDS011;29650;47.378;8.300;2024-01-25T06:19:32;3.10;;;1.65;;
43986;SDS011;29650;47.378;8.300;2024-01-25T06:21:59;4.25;;;1.90;;
43986;SDS011;29650;47.378;8.300;2024-01-25T06:24:29;1.95;;;1.75;;
43986;SDS011;29650;47.378;8.300;2024-01-25T06:26:56;2.65;;;2.10;;
43986;SDS011;29650;47.378;8.300;2024-01-25T06:29:23;3.50;;;2.10;;
43986;SDS011;29650;47.378;8.300;2024-01-25T06:31:50;3.45;;;2.30;;
43986;SDS011;29650;47.378;8.300;2024-01-25T06:34:17;2.70;;;2.20;;
43986;SDS011;29650;47.378;8.300;2024-01-25T06:36:44;2.88;;;2.22;;
43986;SDS011;29650;47.378;8.300;2024-01-25T06:39:11;3.20;;;2.33;;
43986;SDS011;29650;47.378;8.300;2024-01-25T06:41:39;3.05;;;1.95;;
43986;SDS011;29650;47.378;8.300;2024-01-25T06:44:07;4.07;;;2.00;;
43986;SDS011;29650;47.378;8.300;2024-01-25T06:46:33;2.72;;;1.80;;
43986;SDS011;29650;47.378;8.300;2024-01-25T06:49:00;2.25;;;1.90;;
43986;SDS011;29650;47.378;8.300;2024-01-25T06:51:28;2.30;;;1.63;;
43986;SDS011;29650;47.378;8.300;2024-01-25T06:53:55;2.40;;;1.90;;
43986;SDS011;29650;47.378;8.300;2024-01-25T06:56:22;2.20;;;1.60;;
43986;SDS011;29650;47.378;8.300;2024-01-25T06:58:50;2.80;;;2.20;;
43986;SDS011;29650;47.378;8.300;2024-01-25T07:01:20;3.05;;;1.40;;
43986;SDS011;29650;47.378;8.300;2024-01-25T07:03:47;3.80;;;1.90;;
43986;SDS011;29650;47.378;8.300;2024-01-25T07:06:15;3.70;;;2.10;;
43986;SDS011;29650;47.378;8.300;2024-01-25T07:08:43;5.57;;;2.58;;
43986;SDS011;29650;47.378;8.300;2024-01-25T07:11:10;4.22;;;2.22;;
43986;SDS011;29650;47.378;8.300;2024-01-25T07:13:37;4.03;;;2.33;;
43986;SDS011;29650;47.378;8.300;2024-01-25T07:16:05;3.80;;;2.00;;
43986;SDS011;29650;47.378;8.300;2024-01-25T07:18:32;6.18;;;2.38;;
43986;SDS011;29650;47.378;8.300;2024-01-25T07:20:59;2.55;;;1.90;;
43986;SDS011;29650;47.378;8.300;2024-01-25T07:23:28;3.33;;;2.20;;
43986;SDS011;29650;47.378;8.300;2024-01-25T07:25:55;5.53;;;2.70;;
43986;SDS011;29650;47.378;8.300;2024-01-25T07:28:22;4.18;;;2.10;;
43986;SDS011;29650;47.378;8.300;2024-01-25T07:30:49;4.20;;;1.92;;
43986;SDS011;29650;47.378;8.300;2024-01-25T07:33:18;4.35;;;1.95;;
43986;SDS011;29650;47.378;8.300;2024-01-25T07:35:45;2.10;;;1.13;;
43986;SDS011;29650;47.378;8.300;2024-01-25T07:38:13;1.15;;;1.00;;
43986;SDS011;29650;47.378;8.300;2024-01-25T07:40:40;4.03;;;1.15;;
43986;SDS011;29650;47.378;8.300;2024-01-25T07:43:07;1.50;;;1.20;;
43986;SDS011;29650;47.378;8.300;2024-01-25T07:45:35;1.75;;;0.90;;
43986;SDS011;29650;47.378;8.300;2024-01-25T07:48:02;1.70;;;0.90;;
43986;SDS011;29650;47.378;8.300;2024-01-25T07:50:30;0.80;;;0.80;;
43986;SDS011;29650;47.378;8.300;2024-01-25T07:52:57;2.70;;;1.00;;
43986;SDS011;29650;47.378;8.300;2024-01-25T07:55:27;1.40;;;0.90;;
43986;SDS011;29650;47.378;8.300;2024-01-25T07:57:54;1.13;;;0.85;;
43986;SDS011;29650;47.378;8.300;2024-01-25T08:00:21;2.75;;;0.80;;
43986;SDS011;29650;47.378;8.300;2024-01-25T08:02:48;1.08;;;0.80;;
43986;SDS011;29650;47.378;8.300;2024-01-25T08:05:15;3.13;;;1.00;;
43986;SDS011;29650;47.378;8.300;2024-01-25T08:07:45;1.00;;;0.80;;
43986;SDS011;29650;47.378;8.300;2024-01-25T08:10:13;1.00;;;0.70;;
43986;SDS011;29650;47.378;8.300;2024-01-25T08:12:40;1.50;;;1.20;;
43986;SDS011;29650;47.378;8.300;2024-01-25T08:15:09;1.85;;;1.20;;
43986;SDS011;29650;47.378;8.300;2024-01-25T08:17:37;1.00;;;0.90;;
43986;SDS011;29650;47.378;8.300;2024-01-25T08:20:04;1.58;;;0.80;;
43986;SDS011;29650;47.378;8.300;2024-01-25T08:22:33;1.77;;;0.90;;
43986;SDS011;29650;47.378;8.300;2024-01-25T08:25:01;1.83;;;1.00;;
43986;SDS011;29650;47.378;8.300;2024-01-25T08:27:29;0.73;;;0.60;;
43986;SDS011;29650;47.378;8.300;2024-01-25T08:29:56;1.25;;;0.90;;
43986;SDS011;29650;47.378;8.300;2024-01-25T08:32:22;1.58;;;1.10;;
43986;SDS011;29650;47.378;8.300;2024-01-25T08:34:49;1.15;;;0.60;;
43986;SDS011;29650;47.378;8.300;2024-01-25T08:37:16;0.82;;;0.55;;
43986;SDS011;29650;47.378;8.300;2024-01-25T08:39:43;1.67;;;0.63;;
43986;SDS011;29650;47.378;8.300;2024-01-25T08:42:15;0.80;;;0.57;;
43986;SDS011;29650;47.378;8.300;2024-01-25T08:44:42;0.60;;;0.60;;
43986;SDS011;29650;47.378;8.300;2024-01-25T08:47:14;1.33;;;0.60;;
43986;SDS011;29650;47.378;8.300;2024-01-25T08:49:41;2.05;;;0.77;;
43986;SDS011;29650;47.378;8.300;2024-01-25T08:52:08;0.50;;;0.50;;
43986;SDS011;29650;47.378;8.300;2024-01-25T08:54:35;1.20;;;0.70;;
43986;SDS011;29650;47.378;8.300;2024-01-25T08:57:03;1.23;;;0.82;;
43986;SDS011;29650;47.378;8.300;2024-01-25T08:59:33;3.20;;;0.60;;
43986;SDS011;29650;47.378;8.300;2024-01-25T09:02:03;1.38;;;1.02;;
43986;SDS011;29650;47.378;8.300;2024-01-25T09:04:31;1.10;;;0.83;;
43986;SDS011;29650;47.378;8.300;2024-01-25T09:06:58;2.75;;;1.15;;
43986;SDS011;29650;47.378;8.300;2024-01-25T09:09:25;2.35;;;1.10;;
43986;SDS011;29650;47.378;8.300;2024-01-25T09:11:52;2.25;;;1.05;;
43986;SDS011;29650;47.378;8.300;2024-01-25T09:14:19;2.33;;;1.00;;
43986;SDS011;29650;47.378;8.300;2024-01-25T09:16:48;1.15;;;0.82;;
43986;SDS011;29650;47.378;8.300;2024-01-25T09:19:15;2.00;;;1.07;;
43986;SDS011;29650;47.378;8.300;2024-01-25T09:21:42;3.33;;;0.80;;
43986;SDS011;29650;47.378;8.300;2024-01-25T09:24:09;1.58;;;0.90;;
43986;SDS011;29650;47.378;8.300;2024-01-25T09:26:36;1.02;;;1.02;;
43986;SDS011;29650;47.378;8.300;2024-01-25T09:29:03;1.88;;;1.00;;
43986;SDS011;29650;47.378;8.300;2024-01-25T09:31:30;0.88;;;0.70;;
43986;SDS011;29650;47.378;8.300;2024-01-25T09:33:59;2.20;;;0.70;;
43986;SDS011;29650;47.378;8.300;2024-01-25T09:36:26;1.93;;;0.80;;
43986;SDS011;29650;47.378;8.300;2024-01-25T09:38:53;2.17;;;0.90;;
43986;SDS011;29650;47.378;8.300;2024-01-25T09:41:20;2.58;;;0.70;;
43986;SDS011;29650;47.378;8.300;2024-01-25T09:43:47;1.50;;;0.80;;
43986;SDS011;29650;47.378;8.300;2024-01-25T09:46:14;3.00;;;1.15;;
43986;SDS011;29650;47.378;8.300;2024-01-25T09:48:42;2.15;;;0.98;;
43986;SDS011;29650;47.378;8.300;2024-01-25T09:53:42;1.30;;;0.85;;
43986;SDS011;29650;47.378;8.300;2024-01-25T09:56:10;3.45;;;0.93;;
43986;SDS011;29650;47.378;8.300;2024-01-25T09:58:39;2.25;;;0.70;;
43986;SDS011;29650;47.378;8.300;2024-01-25T10:01:08;1.05;;;0.80;;
43986;SDS011;29650;47.378;8.300;2024-01-25T10:03:36;1.55;;;0.85;;
43986;SDS011;29650;47.378;8.300;2024-01-25T10:06:05;1.95;;;0.93;;
43986;SDS011;29650;47.378;8.300;2024-01-25T10:08:34;1.77;;;1.00;;
43986;SDS011;29650;47.378;8.300;2024-01-25T10:11:02;0.83;;;0.83;;
43986;SDS011;29650;47.378;8.300;2024-01-25T10:13:29;2.00;;;0.90;;
43986;SDS011;29650;47.378;8.300;2024-01-25T10:15:57;1.17;;;0.80;;
43986;SDS011;29650;47.378;8.300;2024-01-25T10:18:24;1.88;;;0.93;;
43986;SDS011;29650;47.378;8.300;2024-01-25T10:20:52;1.58;;;1.05;;
43986;SDS011;29650;47.378;8.300;2024-01-25T10:23:20;1.80;;;0.90;;
43986;SDS011;29650;47.378;8.300;2024-01-25T10:25:49;1.13;;;0.80;;
43986;SDS011;29650;47.378;8.300;2024-01-25T10:28:16;0.87;;;0.73;;
43986;SDS011;29650;47.378;8.300;2024-01-25T10:30:43;1.25;;;0.80;;
43986;SDS011;29650;47.378;8.300;2024-01-25T10:33:10;1.20;;;0.65;;
43986;SDS011;29650;47.378;8.300;2024-01-25T10:35:38;2.15;;;0.70;;
43986;SDS011;29650;47.378;8.300;2024-01-25T10:38:10;3.33;;;0.88;;
43986;SDS011;29650;47.378;8.300;2024-01-25T10:40:37;4.13;;;1.38;;
43986;SDS011;29650;47.378;8.300;2024-01-25T10:43:08;3.25;;;0.82;;
43986;SDS011;29650;47.378;8.300;2024-01-25T10:45:35;1.33;;;0.80;;
43986;SDS011;29650;47.378;8.300;2024-01-25T10:48:02;2.63;;;0.65;;
43986;SDS011;29650;47.378;8.300;2024-01-25T10:50:29;2.50;;;0.93;;
43986;SDS011;29650;47.378;8.300;2024-01-25T10:52:56;0.98;;;0.82;;
43986;SDS011;29650;47.378;8.300;2024-01-25T10:55:24;2.42;;;1.10;;
43986;SDS011;29650;47.378;8.300;2024-01-25T10:57:52;1.25;;;1.10;;
43986;SDS011;29650;47.378;8.300;2024-01-25T11:00:20;2.30;;;1.05;;
43986;SDS011;29650;47.378;8.300;2024-01-25T11:02:47;3.78;;;1.00;;
43986;SDS011;29650;47.378;8.300;2024-01-25T11:05:16;2.28;;;1.20;;
43986;SDS011;29650;47.378;8.300;2024-01-25T11:07:46;3.33;;;1.13;;
43986;SDS011;29650;47.378;8.300;2024-01-25T11:10:14;3.05;;;1.25;;
43986;SDS011;29650;47.378;8.300;2024-01-25T11:12:49;1.95;;;1.00;;
43986;SDS011;29650;47.378;8.300;2024-01-25T11:15:22;1.30;;;1.00;;
43986;SDS011;29650;47.378;8.300;2024-01-25T11:17:50;2.90;;;1.10;;
43986;SDS011;29650;47.378;8.300;2024-01-25T11:20:20;2.25;;;1.23;;
43986;SDS011;29650;47.378;8.300;2024-01-25T11:22:48;0.80;;;0.80;;
43986;SDS011;29650;47.378;8.300;2024-01-25T11:25:19;2.13;;;1.05;;
43986;SDS011;29650;47.378;8.300;2024-01-25T11:27:47;3.45;;;1.40;;
43986;SDS011;29650;47.378;8.300;2024-01-25T11:30:15;3.47;;;1.27;;
43986;SDS011;29650;47.378;8.300;2024-01-25T11:37:42;3.50;;;1.00;;
43986;SDS011;29650;47.378;8.300;2024-01-25T11:40:10;2.55;;;1.77;;
43986;SDS011;29650;47.378;8.300;2024-01-25T11:42:38;3.90;;;1.38;;
43986;SDS011;29650;47.378;8.300;2024-01-25T11:45:06;2.53;;;1.10;;
43986;SDS011;29650;47.378;8.300;2024-01-25T11:47:36;2.38;;;1.08;;
43986;SDS011;29650;47.378;8.300;2024-01-25T11:50:05;1.52;;;1.20;;
43986;SDS011;29650;47.378;8.300;2024-01-25T11:52:33;3.83;;;1.08;;
43986;SDS011;29650;47.378;8.300;2024-01-25T11:55:01;2.15;;;1.20;;
43986;SDS011;29650;47.378;8.300;2024-01-25T11:57:29;2.60;;;1.08;;
43986;SDS011;29650;47.378;8.300;2024-01-25T11:59:57;1.60;;;1.02;;
43986;SDS011;29650;47.378;8.300;2024-01-25T12:02:25;2.50;;;1.13;;
43986;SDS011;29650;47.378;8.300;2024-01-25T12:04:53;3.25;;;1.38;;
43986;SDS011;29650;47.378;8.300;2024-01-25T12:07:22;4.13;;;1.10;;
43986;SDS011;29650;47.378;8.300;2024-01-25T12:09:59;3.43;;;1.73;;
43986;SDS011;29650;47.378;8.300;2024-01-25T12:12:26;1.40;;;1.20;;
43986;SDS011;29650;47.378;8.300;2024-01-25T12:14:57;1.35;;;0.82;;
43986;SDS011;29650;47.378;8.300;2024-01-25T12:17:26;1.60;;;1.05;;
43986;SDS011;29650;47.378;8.300;2024-01-25T12:19:54;2.28;;;1.05;;
43986;SDS011;29650;47.378;8.300;2024-01-25T12:22:23;5.63;;;1.30;;
43986;SDS011;29650;47.378;8.300;2024-01-25T12:24:52;3.70;;;1.40;;
43986;SDS011;29650;47.378;8.300;2024-01-25T12:29:47;4.13;;;1.20;;
43986;SDS011;29650;47.378;8.300;2024-01-25T12:32:14;2.78;;;0.98;;
43986;SDS011;29650;47.378;8.300;2024-01-25T12:34:41;2.58;;;0.90;;
43986;SDS011;29650;47.378;8.300;2024-01-25T12:37:09;2.63;;;1.98;;
43986;SDS011;29650;47.378;8.300;2024-01-25T12:39:37;2.10;;;0.90;;
43986;SDS011;29650;47.378;8.300;2024-01-25T12:42:06;1.13;;;1.00;;
43986;SDS011;29650;47.378;8.300;2024-01-25T12:44:33;1.30;;;1.17;;
43986;SDS011;29650;47.378;8.300;2024-01-25T12:47:00;2.35;;;1.00;;
43986;SDS011;29650;47.378;8.300;2024-01-25T12:49:31;1.02;;;0.73;;
43986;SDS011;29650;47.378;8.300;2024-01-25T12:51:58;1.25;;;0.75;;
43986;SDS011;29650;47.378;8.300;2024-01-25T12:54:25;1.60;;;0.90;;
43986;SDS011;29650;47.378;8.300;2024-01-25T12:56:55;1.73;;;0.50;;
43986;SDS011;29650;47.378;8.300;2024-01-25T12:59:22;1.95;;;0.75;;
43986;SDS011;29650;47.378;8.300;2024-01-25T13:01:49;1.05;;;0.60;;
43986;SDS011;29650;47.378;8.300;2024-01-25T13:04:16;1.20;;;0.60;;
43986;SDS011;29650;47.378;8.300;2024-01-25T13:06:43;0.80;;;0.70;;
43986;SDS011;29650;47.378;8.300;2024-01-25T13:09:09;0.88;;;0.50;;
43986;SDS011;29650;47.378;8.300;2024-01-25T13:11:36;0.95;;;0.43;;
43986;SDS011;29650;47.378;8.300;2024-01-25T13:14:05;1.67;;;0.63;;
43986;SDS011;29650;47.378;8.300;2024-01-25T13:16:32;0.80;;;0.45;;
43986;SDS011;29650;47.378;8.300;2024-01-25T13:18:59;2.65;;;0.60;;
43986;SDS011;29650;47.378;8.300;2024-01-25T13:21:26;0.50;;;0.50;;
43986;SDS011;29650;47.378;8.300;2024-01-25T13:23:53;1.95;;;0.60;;
43986;SDS011;29650;47.378;8.300;2024-01-25T13:26:20;1.10;;;0.75;;
43986;SDS011;29650;47.378;8.300;2024-01-25T13:28:47;0.50;;;0.50;;
43986;SDS011;29650;47.378;8.300;2024-01-25T13:31:15;0.63;;;0.60;;
43986;SDS011;29650;47.378;8.300;2024-01-25T13:33:42;0.73;;;0.60;;
43986;SDS011;29650;47.378;8.300;2024-01-25T13:36:10;0.90;;;0.50;;
43986;SDS011;29650;47.378;8.300;2024-01-25T13:38:39;1.05;;;0.70;;
43986;SDS011;29650;47.378;8.300;2024-01-25T13:41:06;0.75;;;0.70;;
43986;SDS011;29650;47.378;8.300;2024-01-25T13:43:33;2.38;;;0.90;;
43986;SDS011;29650;47.378;8.300;2024-01-25T13:46:00;0.52;;;0.50;;
43986;SDS011;29650;47.378;8.300;2024-01-25T13:48:28;0.70;;;0.68;;
43986;SDS011;29650;47.378;8.300;2024-01-25T13:50:55;1.20;;;0.80;;
43986;SDS011;29650;47.378;8.300;2024-01-25T13:53:22;1.05;;;0.80;;
43986;SDS011;29650;47.378;8.300;2024-01-25T13:55:49;1.27;;;0.95;;
43986;SDS011;29650;47.378;8.300;2024-01-25T13:58:16;1.20;;;0.80;;
43986;SDS011;29650;47.378;8.300;2024-01-25T14:00:43;1.58;;;0.55;;
43986;SDS011;29650;47.378;8.300;2024-01-25T14:03:10;0.55;;;0.55;;
43986;SDS011;29650;47.378;8.300;2024-01-25T14:05:38;0.50;;;0.50;;
43986;SDS011;29650;47.378;8.300;2024-01-25T14:08:05;1.45;;;0.52;;
43986;SDS011;29650;47.378;8.300;2024-01-25T14:10:32;2.65;;;0.63;;
43986;SDS011;29650;47.378;8.300;2024-01-25T14:13:01;0.40;;;0.40;;
43986;SDS011;29650;47.378;8.300;2024-01-25T14:15:28;0.47;;;0.40;;
43986;SDS011;29650;47.378;8.300;2024-01-25T14:17:55;0.50;;;0.50;;
43986;SDS011;29650;47.378;8.300;2024-01-25T14:20:22;1.60;;;0.60;;
43986;SDS011;29650;47.378;8.300;2024-01-25T14:22:50;0.80;;;0.57;;
43986;SDS011;29650;47.378;8.300;2024-01-25T14:25:17;2.03;;;0.70;;
43986;SDS011;29650;47.378;8.300;2024-01-25T14:27:44;1.50;;;0.80;;
43986;SDS011;29650;47.378;8.300;2024-01-25T14:30:13;0.65;;;0.60;;
43986;SDS011;29650;47.378;8.300;2024-01-25T14:32:41;0.50;;;0.50;;
43986;SDS011;29650;47.378;8.300;2024-01-25T14:35:08;1.58;;;0.75;;
43986;SDS011;29650;47.378;8.300;2024-01-25T14:37:35;1.15;;;0.60;;
43986;SDS011;29650;47.378;8.300;2024-01-25T14:40:04;0.50;;;0.50;;
43986;SDS011;29650;47.378;8.300;2024-01-25T14:42:31;0.60;;;0.60;;
43986;SDS011;29650;47.378;8.300;2024-01-25T14:44:58;1.52;;;0.90;;
43986;SDS011;29650;47.378;8.300;2024-01-25T14:47:25;0.73;;;0.70;;
43986;SDS011;29650;47.378;8.300;2024-01-25T14:49:52;0.80;;;0.80;;
43986;SDS011;29650;47.378;8.300;2024-01-25T14:52:19;5.47;;;1.10;;
43986;SDS011;29650;47.378;8.300;2024-01-25T14:54:46;1.75;;;0.90;;
43986;SDS011;29650;47.378;8.300;2024-01-25T14:57:14;1.42;;;0.70;;
43986;SDS011;29650;47.378;8.300;2024-01-25T14:59:41;1.95;;;0.60;;
43986;SDS011;29650;47.378;8.300;2024-01-25T15:02:08;1.17;;;0.80;;
43986;SDS011;29650;47.378;8.300;2024-01-25T15:04:35;0.82;;;0.70;;